Terminal Aerodrome Forecast
Issued by NWS Wilmington, OH

Current Version | Previous Version | Graphics & Text | Print | Product List | Glossary On
Versions: 1 2 3 4 5 6 7 8 9 10 11 12 13 14 15 16 17 18 19 20 21 22 23 24 25 26 27 28 29
000
FTUS41 KILN 021500 AAD
TAFCVG
TAF AMD
KCVG 021502Z 0215/0318 14005KT 5SM -SHRA BR OVC025
      TEMPO 0215/0218 2SM -SHRA OVC015
     FM022000 10005KT P6SM VCSH BKN025 OVC040
      TEMPO 0220/0224 5SM -SHRA BR
     FM030000 07006KT P6SM VCSH SCT025 OVC050
     FM030300 03008KT P6SM VCSH SCT025 BKN050=

USA.gov is the U.S. government's official web portal to all federal, state and local government web resources and services.